createdAt,value
2023-03-12T00:01:30.333Z,99814.59
2023-03-12T00:06:32.948Z,99809.66
2023-03-12T00:11:34.582Z,99808.72
2023-03-12T00:16:36.279Z,99814.09
2023-03-12T00:21:37.859Z,99826.06
2023-03-12T00:26:39.935Z,99820.78
2023-03-12T00:31:41.564Z,99831.19
2023-03-12T00:36:43.260Z,99833.00
2023-03-12T00:41:44.852Z,99834.59
2023-03-12T00:46:46.542Z,99822.97
2023-03-12T00:51:48.167Z,99823.72
2023-03-12T00:56:50.025Z,99830.34
2023-03-12T01:01:51.757Z,99829.13
2023-03-12T01:06:55.212Z,99827.84
2023-03-12T01:11:56.787Z,99826.81
2023-03-12T01:16:58.370Z,99829.31
2023-03-12T01:21:59.986Z,99834.81
2023-03-12T01:27:01.572Z,99818.75
2023-03-12T01:32:03.206Z,99827.53
2023-03-12T01:37:04.839Z,99831.66
2023-03-12T01:42:06.547Z,99839.38
2023-03-12T01:47:08.549Z,99837.56
2023-03-12T01:52:24.654Z,99850.25
2023-03-12T01:57:38.273Z,99849.69
2023-03-12T02:02:42.367Z,99842.84
2023-03-12T02:07:46.541Z,99838.75
2023-03-12T02:12:48.345Z,99834.72
2023-03-12T02:17:50.076Z,99838.94
2023-03-12T02:22:58.224Z,99838.41
2023-03-12T02:28:00.768Z,99839.91
2023-03-12T02:33:06.245Z,99842.31
2023-03-12T02:38:32.825Z,99846.81
2023-03-12T02:43:34.462Z,99854.44
2023-03-12T02:48:36.254Z,99859.31
2023-03-12T02:53:37.993Z,99863.19
2023-03-12T02:58:39.652Z,99858.56
2023-03-12T03:03:41.450Z,99861.69
2023-03-12T03:08:43.684Z,99870.03
2023-03-12T03:13:45.354Z,99865.63
2023-03-12T03:18:47.886Z,99872.28
2023-03-12T03:23:50.576Z,99875.34
2023-03-12T03:28:52.812Z,99888.53
2023-03-12T03:33:54.545Z,99889.28
2023-03-12T03:38:56.225Z,99904.28
2023-03-12T03:43:59.384Z,99899.63
2023-03-12T03:49:02.637Z,99896.88
2023-03-12T03:54:05.200Z,99891.38
2023-03-12T03:59:07.309Z,99899.44
2023-03-12T04:04:12.525Z,99901.94
2023-03-12T04:09:14.286Z,99920.31
2023-03-12T04:14:16.074Z,99916.91
2023-03-12T04:19:19.971Z,99919.66
2023-03-12T04:24:21.841Z,99917.94
2023-03-12T04:29:23.789Z,99916.47
2023-03-12T04:34:27.161Z,99912.03
2023-03-12T04:39:30.168Z,99906.22
2023-03-12T04:44:31.821Z,99910.97
2023-03-12T04:49:33.742Z,99919.41
2023-03-12T04:54:37.384Z,99922.72
2023-03-12T04:59:39.534Z,99929.75
2023-03-12T05:04:41.260Z,99931.81
2023-03-12T05:09:44.134Z,99936.56
2023-03-12T05:14:46.289Z,99933.31
2023-03-12T05:19:48.016Z,99941.75
2023-03-12T05:24:49.909Z,99943.56
2023-03-12T05:29:53.249Z,99943.28
2023-03-12T05:34:56.278Z,99941.91
2023-03-12T05:39:58.129Z,99943.13
2023-03-12T05:45:00.594Z,99949.41
2023-03-12T05:50:02.389Z,99947.94
2023-03-12T05:55:05.789Z,99943.63
2023-03-12T06:00:08.723Z,99944.75
2023-03-12T06:05:20.990Z,99953.13
2023-03-12T06:10:22.677Z,99952.19
2023-03-12T06:15:24.268Z,99943.34
2023-03-12T06:20:26.438Z,99940.81
2023-03-12T06:25:28.096Z,99942.94
2023-03-12T06:30:29.836Z,99943.78
2023-03-12T06:35:31.428Z,99949.66
2023-03-12T06:40:33.038Z,99946.44
2023-03-12T06:45:34.741Z,99951.19
2023-03-12T06:50:36.422Z,99948.88
2023-03-12T06:55:38.041Z,99950.75
2023-03-12T07:00:39.620Z,99958.19
2023-03-12T07:05:44.361Z,99954.66
2023-03-12T07:10:46.258Z,99947.13
2023-03-12T07:15:47.857Z,99949.00
2023-03-12T07:20:49.473Z,99938.59
2023-03-12T07:25:51.797Z,99942.47
2023-03-12T07:30:53.454Z,99945.38
2023-03-12T07:35:55.329Z,99956.28
2023-03-12T07:40:58.061Z,99957.06
2023-03-12T07:45:59.658Z,99952.53
2023-03-12T07:51:01.315Z,99957.88
2023-03-12T07:56:03.080Z,99951.63
2023-03-12T08:01:06.635Z,99965.38
2023-03-12T08:06:08.256Z,99967.06
2023-03-12T08:11:09.947Z,99972.28
2023-03-12T08:16:12.231Z,99970.03
2023-03-12T08:21:16.498Z,99962.97
2023-03-12T08:26:18.181Z,99969.38
2023-03-12T08:31:19.893Z,99974.06
2023-03-12T08:36:22.561Z,99961.69
2023-03-12T08:41:24.263Z,99978.94
2023-03-12T08:46:25.953Z,99963.69
2023-03-12T08:51:27.562Z,99967.31
2023-03-12T08:56:29.117Z,99960.78
2023-03-12T09:01:30.674Z,99951.97
2023-03-12T09:06:34.181Z,99956.41
2023-03-12T09:11:36.997Z,99945.31
2023-03-12T09:16:38.588Z,99950.59
2023-03-12T09:21:40.271Z,99949.28
2023-03-12T09:26:42.280Z,99943.81
2023-03-12T09:31:43.891Z,99939.44
2023-03-12T09:36:45.447Z,99935.81
2023-03-12T09:41:47.819Z,99926.84
2023-03-12T09:46:53.781Z,99928.47
2023-03-12T09:51:57.394Z,99927.53
2023-03-12T09:57:03.924Z,99929.78
2023-03-12T10:02:23.976Z,99916.81
2023-03-12T10:07:38.237Z,99913.13
2023-03-12T10:12:47.525Z,99902.00
2023-03-12T10:18:25.085Z,99900.94
2023-03-12T10:23:48.931Z,99904.50
2023-03-12T10:29:21.624Z,99902.41
2023-03-12T10:34:26.343Z,99889.25
2023-03-12T10:39:27.988Z,99879.66
2023-03-12T10:44:29.762Z,99883.66
2023-03-12T10:49:35.243Z,99871.31
2023-03-12T10:54:40.923Z,99869.72
2023-03-12T10:59:45.436Z,99864.81
2023-03-12T11:04:51.295Z,99860.22
2023-03-12T11:10:08.012Z,99856.03
2023-03-12T11:15:29.488Z,99857.69
2023-03-12T11:20:31.105Z,99847.03
2023-03-12T11:25:32.734Z,99838.63
2023-03-12T11:30:39.650Z,99839.78
2023-03-12T11:35:50.116Z,99833.31
2023-03-12T11:41:19.109Z,99832.34
2023-03-12T11:46:57.675Z,99808.13
2023-03-12T11:52:24.528Z,99796.63
2023-03-12T11:57:28.807Z,99788.22
2023-03-12T12:02:39.425Z,99773.53
2023-03-12T12:07:59.399Z,99757.97
2023-03-12T12:13:23.242Z,99742.53
2023-03-12T12:18:50.840Z,99739.97
2023-03-12T12:24:00.832Z,99729.91
2023-03-12T12:29:35.544Z,99725.41
2023-03-12T12:35:19.468Z,99712.03
2023-03-12T12:40:31.337Z,99692.81
2023-03-12T12:45:32.983Z,99687.81
2023-03-12T12:50:37.963Z,99682.69
2023-03-12T12:56:07.182Z,99688.50
2023-03-12T13:01:09.620Z,99676.28
2023-03-12T13:06:11.722Z,99670.09
2023-03-12T13:11:20.097Z,99678.06
2023-03-12T13:16:33.414Z,99669.91
2023-03-12T13:22:13.530Z,99667.50
2023-03-12T13:27:23.825Z,99666.59
2023-03-12T13:32:34.358Z,99670.28
2023-03-12T13:37:47.842Z,99664.00
2023-03-12T13:43:13.505Z,99664.97
2023-03-12T13:48:17.929Z,99664.75
2023-03-12T13:53:25.266Z,99655.50
2023-03-12T13:58:27.085Z,99663.09
2023-03-12T14:03:32.260Z,99670.97
2023-03-12T14:08:33.918Z,99657.78
2023-03-12T14:13:44.889Z,99665.06
2023-03-12T14:18:46.820Z,99664.84
2023-03-12T14:23:53.169Z,99629.19
2023-03-12T14:28:59.253Z,99660.72
2023-03-12T14:34:07.606Z,99636.78
2023-03-12T14:39:19.382Z,99634.41
2023-03-12T14:44:24.836Z,99639.19
2023-03-12T14:49:27.415Z,99635.81
2023-03-12T14:54:29.092Z,99639.78
2023-03-12T14:59:39.062Z,99631.97
2023-03-12T15:04:41.524Z,99632.94
2023-03-12T15:09:46.359Z,99639.53
2023-03-12T15:14:49.379Z,99630.25
2023-03-12T15:19:51.755Z,99616.25
2023-03-12T15:24:53.820Z,99618.13
2023-03-12T15:29:56.750Z,99606.50
2023-03-12T15:34:59.364Z,99593.34
2023-03-12T15:40:06.494Z,99566.56
2023-03-12T15:45:25.797Z,99563.19
2023-03-12T15:50:40.664Z,99551.56
2023-03-12T15:55:42.381Z,99563.50
2023-03-12T16:00:45.051Z,99545.97
2023-03-12T16:05:47.566Z,99548.50
2023-03-12T16:10:50.301Z,99551.88
2023-03-12T16:15:52.041Z,99536.50
2023-03-12T16:20:54.003Z,99537.03
2023-03-12T16:25:58.462Z,99532.72
2023-03-12T16:31:00.031Z,99535.09
2023-03-12T16:36:01.744Z,99535.91
2023-03-12T16:41:03.410Z,99542.78
2023-03-12T16:46:07.883Z,99537.06
2023-03-12T16:51:13.994Z,99536.09
2023-03-12T16:56:23.417Z,99535.50
2023-03-12T17:01:26.797Z,99528.94
2023-03-12T17:06:28.424Z,99527.84
2023-03-12T17:11:32.824Z,99535.25
2023-03-12T17:16:34.414Z,99517.72
2023-03-12T17:21:37.349Z,99524.75
2023-03-12T17:26:38.994Z,99537.03
2023-03-12T17:31:40.742Z,99546.56
2023-03-12T17:36:42.339Z,99559.56
2023-03-12T17:41:43.904Z,99556.72
2023-03-12T17:46:58.442Z,99542.59
2023-03-12T17:52:02.680Z,99531.94
2023-03-12T17:57:04.345Z,99535.53
2023-03-12T18:02:06.011Z,99558.22
2023-03-12T18:07:08.109Z,99535.94
2023-03-12T18:12:11.179Z,99537.63
2023-03-12T18:17:12.844Z,99528.34
2023-03-12T18:22:14.737Z,99543.75
2023-03-12T18:27:16.314Z,99535.34
2023-03-12T18:32:17.918Z,99545.59
2023-03-12T18:37:20.316Z,99559.25
2023-03-12T18:42:21.967Z,99538.22
2023-03-12T18:47:23.577Z,99547.66
2023-03-12T18:52:25.260Z,99547.94
2023-03-12T18:57:26.860Z,99548.50
2023-03-12T19:02:28.489Z,99541.16
2023-03-12T19:07:31.808Z,99552.66
2023-03-12T19:12:42.378Z,99548.66
2023-03-12T19:17:50.672Z,99562.50
2023-03-12T19:22:52.361Z,99556.03
2023-03-12T19:27:54.068Z,99546.53
2023-03-12T19:32:55.659Z,99545.94
2023-03-12T19:37:59.455Z,99556.28
2023-03-12T19:43:02.155Z,99543.41
2023-03-12T19:48:04.488Z,99546.59
2023-03-12T19:53:06.395Z,99542.25
2023-03-12T19:58:08.467Z,99555.97
2023-03-12T20:03:10.386Z,99575.72
2023-03-12T20:08:12.296Z,99571.34
2023-03-12T20:13:17.504Z,99578.63
2023-03-12T20:18:19.225Z,99577.44
2023-03-12T20:23:20.826Z,99576.47
2023-03-12T20:28:22.506Z,99572.50
2023-03-12T20:33:24.117Z,99575.16
2023-03-12T20:38:25.755Z,99570.69
2023-03-12T20:43:27.525Z,99565.34
2023-03-12T20:48:29.111Z,99557.19
2023-03-12T20:53:30.762Z,99567.53
2023-03-12T20:58:32.352Z,99563.75
2023-03-12T21:03:34.274Z,99560.78
2023-03-12T21:08:35.841Z,99566.66
2023-03-12T21:13:37.392Z,99570.00
2023-03-12T21:18:38.959Z,99566.66
2023-03-12T21:23:40.649Z,99572.44
2023-03-12T21:28:42.225Z,99566.63
2023-03-12T21:33:43.949Z,99553.31
2023-03-12T21:38:45.597Z,99546.09
2023-03-12T21:43:47.875Z,99544.88
2023-03-12T21:48:49.759Z,99539.25
2023-03-12T21:53:55.374Z,99538.97
2023-03-12T21:58:57.639Z,99520.34
2023-03-12T22:04:01.049Z,99522.53
2023-03-12T22:09:02.680Z,99525.34
2023-03-12T22:14:04.556Z,99528.75
2023-03-12T22:19:07.409Z,99517.03
2023-03-12T22:24:09.371Z,99518.53
2023-03-12T22:29:10.947Z,99511.41
2023-03-12T22:34:12.541Z,99501.75
2023-03-12T22:39:14.155Z,99499.78
2023-03-12T22:44:15.925Z,99496.78
2023-03-12T22:49:17.523Z,99486.78
2023-03-12T22:54:19.125Z,99480.78
2023-03-12T22:59:20.762Z,99483.44
2023-03-12T23:04:22.545Z,99484.31
2023-03-12T23:09:24.174Z,99490.16
2023-03-12T23:14:25.796Z,99491.50
2023-03-12T23:19:32.307Z,99495.19
2023-03-12T23:24:33.843Z,99489.84
2023-03-12T23:29:35.571Z,99485.03
2023-03-12T23:34:37.147Z,99483.16
2023-03-12T23:39:53.474Z,99478.84
2023-03-12T23:44:56.241Z,99464.50
2023-03-12T23:49:57.854Z,99465.00
2023-03-12T23:54:59.472Z,99473.16
